Dennis, Kansas
Current Conditions -  °F | °C
As of 3:52 AM on Monday 22 Dec 2014 (Local Time) from KPPF Reporting Station
Overcast Overcast  
Wind Chill: 41°   Ceiling: 1600
Heat Index: 45°   Visibility: 9mi
Dew Point: 43°   Wind: 7mph
Humidity: 93%   Direction: 130°SE
Pressure: 29.63"   Gusts: NA
Location:  37.35°N, 95.41°W
Report Text: KPPF 220952Z AUTO 13006KT 9SM BKN016 OVC025 07/06 A2963 RMK AO2 SLP036 T00720061
Loading
Personal Weather Stations






























Interactive Weather Map New forecast layout! Learn more

10-Day Weather Forecast

Advertisements
Track Severe Weather on mobile